Erdem Tokoz

Chief Scout - Basaksehir
3 Dec 2028
Sunday
Process

Personality

Adaptability (12) Ambition (17) Controversy (18) Loyalty (3) Pressure (18) Professionalism (13) Sportsmanship (15) Temperament (16)

Profile

Coaching Style Democratic
License Continental B
Determination 9
Man Management 12
Motivating 8
Discipline 10
Job Satisfaction
94%
Fatigue
0%
Role Chief Scout
Wage 14.6K p/w
Contract 14.03.2030

Performance

Behaviour Good
Training Effectiveness
33%
Player Development
65%
Injury Prevention
35%
Tactical Implementation
50%

Recent Events

Assessed a player now
Attended a recruitment meeting now
Recommended a transfer target now
Recommended a transfer target now
Recommended a transfer target now
Recommended a transfer target now
Recommended a transfer target now
Assessed a player 7d ago

Currently Monitoring

291
Player Club Status Ability Confidence Watched Last Observed Latest Vote
Azizbek To'lqinbekov Bunyodkor Active 108 / 116 40% 3 01.12.2028 -
Harrison Armstrong Ipswich Town Active 137 / 141 40% 3 01.12.2028 -
Rafael Mota Sporting CP Active 120 / 120 40% 1 01.12.2028 -
Riquelme Thompson-Jones Accrington Stanley Active 114 / 121 40% 6 27.11.2028 -
Honest Ahanor Atalanta Active 146 / 151 40% 6 27.11.2028 -
Ayyoub Bouaddi Stoke City Active 160 / 156 40% 2 26.11.2028 -
Olivier Leroux Mouscron Active 106 / 109 40% 2 26.11.2028 -
Luka Vušković Tottenham Active 146 / 162 40% 1 21.11.2028 -
Guy Noël Zohouri Le Havre AC Active 132 / 131 40% 1 20.11.2028 -
Noah Markmann Esbjerg Active 122 / 122 40% 2 19.11.2028 -
Luis Otávio Orlando City Active 119 / 115 40% 3 19.11.2028 -
Norman Díaz Ankaragucu Active 112 / 112 52% 1 / 1m 15.11.2028 -
Andrey Ivlev Nizhniy Novgorod Active 103 / 117 40% 2 09.11.2028 -
Snyder Brunell Seattle Sounders Active 96 / 112 40% 1 09.11.2028 -
Davinchi Getafe Active 135 / 126 40% 1 07.11.2028 -
Marko Zebić Lucko Active 112 / 135 40% 1 07.11.2028 -
Matias Siltanen Malmo FF Active 114 / 123 40% 5 06.11.2028 -
Jack Shorrock Port Vale Active 102 / 105 40% 1 06.11.2028 -
Andrija Bulatović Chamois Niortais Active 129 / 138 40% 3 05.11.2028 -
Diego León Rotherham United Active 131 / 133 40% 4 05.11.2028 -
Christos Mouzakitis Hull City Active 140 / 151 40% 2 03.11.2028 -
Diego Cheuquepal Racing Active 103 / 96 40% 1 03.11.2028 -
Tobías Ramírez River Plate Active 117 / 137 40% 3 02.11.2028 -
Ronan Kpakio AC Milan Active 132 / 134 40% 1 02.11.2028 -
Giovanni Leoni Lincoln City Active 147 / 146 40% 6 01.11.2028 -
Musa Danjuma Umraniyespor Active 98 / 110 40% 1 01.11.2028 -
Gideon Manaseh Ikorodu City Active 105 / 88 40% 4 28.10.2028 -
José Neto Benfica Active 128 / 127 40% 1 27.10.2028 -
Tyson Pearce St. Louis CITY SC Active 95 / 99 40% 1 27.10.2028 -
João Simões Sporting CP Active 143 / 142 40% 2 25.10.2028 -
Thulani Manyama Portland Timbers Active 126 / 120 40% 3 25.10.2028 -
Trey Nyoni Rotherham United Active 150 / 156 40% 4 23.10.2028 -
Miguel Figueiredo Benfica Active 118 / 130 40% 1 22.10.2028 -
Peyton Miller New England Revolution Active 103 / 117 40% 2 21.10.2028 -
Chris Rigg West Ham United Active 143 / 150 40% 1 21.10.2028 -
Mateo Caballero Defensor Sporting Active 111 / 111 40% 1 20.10.2028 -
Germán Barbas Racing Santander Active 117 / 124 40% 1 18.10.2028 -
Eric Klein Real Salt Lake Active 111 / 103 40% 1 18.10.2028 -
Pau Cubarsí Real Sociedad Active 167 / 160 40% 1 17.10.2028 -
Muminhon Bahodirxonov Neftchi Active 94 / 101 40% 1 14.10.2028 -
Celías Ingenthron Platense Active 107 / 137 40% 1 13.10.2028 -
Máximo Magnoli Ferro Carril Oeste Active 107 / 103 40% 1 10.10.2028 -
Veljko Milosavljević Bournemouth Active 147 / 156 40% 1 10.10.2028 -
Harry Amass Manchester United Active 140 / 145 40% 3 09.10.2028 -
Nikola Simić Partizan Active 128 / 125 40% 2 09.10.2028 -
Sebastian Rodriguez Houston Dynamo Active 120 / 123 40% 2 07.10.2028 -
Joel Ezra Enyimba Active 106 / 93 40% 4 07.09.2028 -
Mauro Carrizo Atlético Tucumán Active 118 / 111 40% 1 07.09.2028 -
Matías Magdaleno Estudiantes Active 113 / 106 40% 1 28.08.2028 -
Tobías Ramírez River Plate Lost 134 / 138 40% 1 28.08.2028 -
Nikola Simić Partizan Lost 122 / 125 40% 1 21.08.2028 -
Basel Medhat Smouha Active 85 / 106 40% 1 15.08.2028 -
Felipe Obradovich Ferro Carril Oeste Lost 123 / 101 40% 1 15.08.2028 -
Augusto Bando Ascoli Active 113 / 125 40% 1 14.08.2028 -
Agustín Medina Lanús Active 106 / 113 40% 1 14.08.2028 -
Ayden Heaven Portsmouth Active 145 / 159 40% 7 10.08.2028 -
Bernardo Lima Porto Active 111 / 125 40% 1 09.08.2028 -
Tyler Fletcher Rotherham United Active 124 / 129 40% 1 08.08.2028 -
Andrés Cuenca Como Active 124 / 121 40% 1 07.08.2028 -
David Mella Deportivo La Coruña Active 150 / 138 40% 1 06.08.2028 -
Oladapo Afolayan Blackburn Rovers Active 127 / 128 40% 1 06.08.2028 -
Máximo Munarriz San Telmo Active 86 / 96 40% 1 06.08.2028 -
Lamine Bèye Portimonense Active 124 / 130 40% 1 06.08.2028 -
Mirza Ćatović VfB Stuttgart Active 123 / 124 40% 1 05.08.2028 -
Omar El Hilali Espanyol Active 157 / 160 40% 4 04.08.2028 -
Matteo Ruggeri Middlesbrough Active 160 / 157 40% 2 04.08.2028 -
Max Bird Birmingham Active 136 / 148 40% 2 02.08.2028 -
Jeremy Sarmiento Middlesbrough Active 146 / 135 40% 1 02.08.2028 -
Marcus Tavernier Bournemouth Active 157 / 159 40% 3 01.08.2028 -
Tyrese Campbell Sheffield United Active 142 / 137 40% 2 01.08.2028 -
Bence Szakos Aris Active 103 / 107 40% 1 01.08.2028 -
Uğurcan Yazğılı Konyaspor Lost 119 / 130 62% 1 31.07.2028 -
Carlos Baleba Norwich City Active 154 / 157 40% 1 31.07.2028 -
Reuell Walters Luton Town Active 130 / 126 40% 1 31.07.2028 -
Jon Morcillo Almería Active 148 / 142 40% 1 29.07.2028 -
Matěj Jurásek Doncaster Rovers Active 125 / 124 40% 1 29.07.2028 -
Jayden Addai Bari Active 137 / 137 40% 3 28.07.2028 -
Amankwah Forson Wycombe Wanderers Active 135 / 132 40% 1 28.07.2028 -
Marcelo Allende Mamelodi Sundowns Active 159 / 129 40% 2 25.07.2028 -
Nathan Broadhead Wrexham Active 140 / 125 40% 2 25.07.2028 -
Lewis O'Brien Wrexham Active 143 / 139 40% 2 24.07.2028 -
Nuno Santos SuperSport United Active 129 / 124 40% 1 24.07.2028 -
Ignasi Vilarrasa Burgos Active 124 / 127 40% 1 23.07.2028 -
Zeidane Inoussa Swansea City Active 132 / 134 40% 1 23.07.2028 -
Cengiz Ünder Fenerbahce Active 135 / 142 40% 1 21.07.2028 -
Ryoya Morishita Blackburn Rovers Active 137 / 139 40% 1 21.07.2028 -
Nestory Irankunda Watford Active 128 / 136 40% 1 20.07.2028 -
Calvin Ramsay Bristol Rovers Active 133 / 130 40% 1 20.07.2028 -
Justo Giani Umraniyespor Active 131 / 120 40% 1 19.07.2028 -
Harry Wilson Leeds United Active 149 / 147 40% 1 18.07.2028 -
Angeliño AS Roma Active 155 / 157 40% 1 18.07.2028 -
Samuel Ballet Antalyaspor Active 130 / 118 62% 1 17.07.2028 Approve
Juan Cruz Leganés Active 136 / 130 40% 1 17.07.2028 -
Dorgéles Néné Ankaragucu Active 144 / 132 62% 1 03.07.2028 Approve
André Wolverhampton Active 161 / 157 40% 2 12.06.2028 -
Fousseni Diabaté Kasimpasa Active 113 / 122 62% 1 12.06.2028 Approve
Dwight McNeil Crystal Palace Active 148 / 144 40% 1 12.06.2028 -
Milot Rashica Besiktas Active 131 / 132 62% 1 07.06.2028 Approve
Iván Martín Racing Santander Active 143 / 145 40% 1 29.05.2028 -
Lamare Bogarde Reading Active 132 / 140 40% 1 29.05.2028 -
Ben Gannon Doak Charlton Athletic Active 156 / 159 40% 7 27.05.2028 -
Yasin Ayari Middlesbrough Active 145 / 150 40% 1 27.05.2028 -
Yaser Asprilla Girona Active 155 / 154 40% 4 24.05.2028 -
Manuel Ugarte Leicester City Active 152 / 147 40% 1 23.05.2028 -
Pablo Torre Mallorca Active 149 / 157 40% 4 22.05.2028 -
Thijs Kraaijeveld USM Alger Active 125 / 122 40% 3 22.05.2028 -
Jorge Salinas Racing Santander Active 124 / 135 40% 1 22.05.2028 -
Fran García Betis Lost 161 / 160 40% 2 21.05.2028 -
Salih Özcan Besiktas Active 146 / 128 40% 3 20.05.2028 -
Borja Sainz Udinese Lost 159 / 159 40% 1 20.05.2028 -
Couhaib Driouech Celta Active 147 / 140 40% 1 20.05.2028 -
Xaver Schlager Nottingham Forest Lost 162 / 159 40% 3 18.05.2028 -
Pau Víctor Braga Active 154 / 152 40% 5 16.05.2028 -
Luka Sučić Andorra Active 144 / 150 40% 2 16.05.2028 -
Eddie Nketiah Crystal Palace Active 145 / 145 40% 1 15.05.2028 -
Ismaïla Sarr Crystal Palace Active 150 / 145 40% 4 14.05.2028 -
Daniel Banjaqui Benfica Active 120 / 123 40% 2 14.05.2028 -
Amine Adli Bournemouth Lost 158 / 140 40% 1 14.05.2028 -
Makar Vysochenko Spartak Moscow Active 97 / 99 40% 1 14.05.2028 -
Mohamed-Ali Cho Hull City Active 139 / 142 40% 4 13.05.2028 -
Cheveyo Tsawa Club Brugge Active 125 / 129 40% 1 13.05.2028 -
Geny Sporting CP Active 156 / 147 40% 4 12.05.2028 -
Gaspar Gijón Active 138 / 143 40% 1 12.05.2028 -
Archie Gray Southampton Active 158 / 151 40% 5 11.05.2028 -
Noa Lang Napoli Active 148 / 143 40% 2 11.05.2028 -
Andrés Martín Racing Santander Active 149 / 140 40% 1 10.05.2028 -
Giacomo Raspadori Atalanta Active 148 / 159 40% 1 09.05.2028 -
Jorthy Mokio ADO Den Haag Active 133 / 128 40% 3 08.05.2028 -
Sander Berge Derby County Active 150 / 148 40% 1 08.05.2028 -
Jofre Carreras Espanyol Active 147 / 139 40% 1 06.05.2028 -
Aimar Osasuna Lost 158 / 143 40% 1 05.05.2028 -
Héctor Fort Real Sociedad Active 149 / 146 40% 2 03.05.2028 -
Jonathan Dubasin Osasuna Active 153 / 143 40% 3 02.05.2028 -
Abel Ruiz Girona Active 146 / 148 40% 2 30.04.2028 -
Kamaldeen Atiemo Wa All Stars Active 93 / 119 40% 2 30.04.2028 -
Carlos Alcaraz Stoke City Active 153 / 148 40% 1 29.04.2028 -
Mattéo Guendouzi Fenerbahce Active 156 / 146 40% 4 27.04.2028 -
Adam Wharton Crystal Palace Active 153 / 164 40% 1 27.04.2028 -
Óscar Mingueza Crystal Palace Active 162 / 147 40% 1 27.04.2028 -
Lucas Høgsberg RC Strasbourg Active 135 / 147 40% 2 24.04.2028 -
Jaidon Anthony Derby County Active 135 / 130 40% 3 22.04.2028 -
Pote Sporting CP Active 161 / 163 40% 4 22.04.2028 -
Kang-In Lee Villarreal Active 172 / 151 40% 1 18.04.2028 -
Semih Kılıçsoy Besiktas Active 126 / 129 40% 1 16.04.2028 -
David Larrubia Málaga Active 134 / 137 40% 1 16.04.2028 -
Marcus Edwards Burnley Active 153 / 148 40% 3 15.04.2028 -
Yann Gboho Toulouse FC Active 147 / 138 40% 1 14.04.2028 -
Thiago Almada LOSC Lille Active 148 / 143 40% 2 09.04.2028 -
Erick Pulga Bahia Active 133 / 146 40% 1 09.04.2028 -
Hugo Duro Valencia Active 154 / 153 40% 1 05.04.2028 -
Roberto Fernández Braga Active 151 / 144 40% 1 04.04.2028 -
Chemsdine Talbi Sunderland Active 146 / 152 40% 2 01.04.2028 -
Ez Abde Betis Active 166 / 147 40% 1 30.03.2028 -
Nordi Mukiele Sunderland Active 154 / 139 40% 5 28.03.2028 -
Benjamín Rollheiser Santos Active 133 / 124 40% 2 28.03.2028 -
Arnau Martínez Valencia Active 153 / 142 40% 1 28.03.2028 -
Samuel Edozie Southampton Active 134 / 133 40% 1 26.03.2028 -
Shavy Babicka Crvena Zvezda Active 119 / 114 40% 1 21.03.2028 -
Musa Barrow ES Setif Active 129 / 137 40% 2 20.03.2028 -
Vitaly Janelt Derby County Active 154 / 144 40% 1 18.03.2028 -
Christian Kouamé Atlético Mineiro Active 142 / 140 40% 2 17.03.2028 -
Hákon Arnar Haraldsson LOSC Lille Active 157 / 151 40% 1 17.03.2028 -
Malick Fofana Sunderland Active 149 / 145 40% 1 17.03.2028 -
Jackson Muleka Konyaspor Active 141 / 128 40% 2 14.03.2028 -
Jaden Philogene Wolverhampton Active 142 / 147 40% 1 11.03.2028 -
Fábio Carvalho Brentford Active 150 / 151 40% 1 10.03.2028 -
Yeremy Pino Crystal Palace Active 153 / 158 40% 1 08.03.2028 -
Mikel Oyarzábal Real Sociedad Active 166 / 165 40% 1 08.03.2028 -
Mikkel Damsgaard Brentford Active 145 / 160 40% 1 07.03.2028 -
Aral Şimşir Porto Active 131 / 137 40% 2 04.03.2028 -
Tyrhys Dolan Espanyol Active 137 / 147 40% 1 04.03.2028 -
Cheikh Sabaly Vancouver Whitecaps Active 123 / 141 40% 1 01.03.2028 -
Amine Harit Olympique de Marseille Active 134 / 126 40% 2 29.02.2028 -
Nuno Moreira Vasco da Gama Active 119 / 138 40% 3 26.02.2028 -
Victor Lind Hammarby Active 144 / 127 40% 2 24.02.2028 -
Maurício Palmeiras Active 148 / 120 40% 3 23.02.2028 -
Jhon Arias Palmeiras Active 159 / 129 40% 2 23.02.2028 -
Pedro de la Vega Columbus Crew Active 134 / 150 40% 1 21.02.2028 -
Iván Angulo Orlando City Active 139 / 126 40% 1 21.02.2028 -
Martín Ojeda Orlando City Active 127 / 129 40% 1 12.02.2028 -
Désiré Doué Stade Brestois Active 167 / 170 40% 2 08.02.2028 -
Gabriel Pec Cruzeiro Active 149 / 126 40% 1 08.02.2028 -
Allan Saint-Maximin Charlotte Football Club Active 152 / 129 40% 1 07.02.2028 -
Josh Nichols Oldham Athletic Active 120 / 124 40% 3 24.01.2028 -
Ali Yavuz Kol Kasimpasa Active 125 / 117 58% 1 17.01.2028 -
Mao Hosoya Santos Active 134 / 135 67% 1 01.01.2028 Approve
Alex Luna Instituto Active 125 / 128 40% 1 31.12.2027 -
Fodé Sylla Sion Active 129 / 135 40% 1 28.11.2027 -
Nicolas Sport Recife Active 105 / 105 40% 1 28.11.2027 -
Hosea Michael Remo Stars Active 82 / 87 40% 2 24.11.2027 -
Felipe Faúndez O'Higgins Active 116 / 101 40% 2 24.11.2027 -
Esquerdinha Notts County Active 122 / 128 40% 4 23.11.2027 -
Diego Vargas Universidad de Concepcion Active 84 / 112 40% 3 22.11.2027 -
Josh Acheampong Everton Active 143 / 149 40% 3 22.11.2027 -
Jonny Shore New York City Active 115 / 91 40% 2 20.11.2027 -
Caleb Yirenkyi Coventry City Active 142 / 156 40% 1 17.11.2027 -
Adrian Skogmar Malmo FF Active 99 / 128 40% 1 10.11.2027 -
Jon Esenga IF Elfsborg Active 87 / 112 40% 1 08.11.2027 -
Nahuel Leivas Montevideo City Torque Active 111 / 102 40% 2 02.11.2027 -
Olaniyi Saheed Kwara United Active 89 / 106 40% 2 01.11.2027 -
Daniel Idoko Ikorodu City Active 92 / 102 40% 3 29.10.2027 -
Oscar Steinke Brånby Hammarby Active 93 / 114 40% 1 19.10.2027 -
Tobias Moi Lillestrom Active 92 / 109 40% 1 17.10.2027 -
Colin Guske Orlando City Active 104 / 91 40% 2 16.10.2027 -
Yury Oyarzo Racing Active 75 / 104 40% 1 09.10.2027 -
Victor Hernandez Santa Fe Active 107 / 123 40% 1 06.10.2027 -
Alejandro Leiva Patronato Active 98 / 95 40% 1 26.08.2027 -
Federico Matarán Giana Erminio Active 105 / 103 40% 1 16.08.2027 -
Matthew Targett Hull City Active 126 / 129 40% 1 06.07.2027 -
Alphadjo Cissé Lecce Active 129 / 133 40% 1 03.06.2027 -
Riley Owen Stevenage Active 100 / 115 40% 1 03.06.2027 -
Oliver Dovin Coventry City Active 136 / 140 40% 7 01.06.2027 -
Sławomir Abramowicz Jagiellonia Active 129 / 145 40% 4 01.06.2027 -
Ángel González Libertad Active 120 / 123 40% 2 26.05.2027 -
James Trafford Leeds United Active 153 / 153 40% 3 23.05.2027 -
Josh Keeley Luton Town Active 120 / 125 40% 4 23.05.2027 -
Filip Marschall Stevenage Active 110 / 107 40% 1 17.05.2027 -
Francesco D'Alterio Ternana Active 100 / 116 40% 2 14.05.2027 -
William Rovida Pro Patria Active 110 / 98 40% 1 14.05.2027 -
Marvin Keller Chelsea Active 148 / 144 40% 3 10.05.2027 -
Franko Kolić Istra 1961 Active 99 / 96 40% 4 06.05.2027 -
Cesare Galeotti Trapani Active 107 / 106 40% 1 05.05.2027 -
Emre Bilgin Giresunspor Active 113 / 111 40% 2 01.05.2027 -
Vladimir Nazarov Pakhtakor Active 96 / 98 40% 1 30.04.2027 -
Zion Suzuki Aston Villa Active 141 / 146 40% 2 26.04.2027 -
Radek Vítek Middlesbrough Active 138 / 133 40% 4 23.04.2027 -
Szymon Weirauch Lechia Active 113 / 124 40% 1 19.04.2027 -
Luka Baš Koper Active 119 / 116 40% 3 18.04.2027 -
Sergio Barlocco Trento Active 113 / 105 40% 3 17.04.2027 -
Leandro Brey Boca Juniors Active 116 / 140 40% 2 12.04.2027 -
Bruno Antúnez Boston River Active 129 / 106 40% 1 11.04.2027 -
Melker Ellborg Sunderland Active 121 / 119 40% 4 08.04.2027 -
Matteo Rizzo Cosenza Active 115 / 103 40% 1 31.03.2027 -
Mate Modric Zadar Active 94 / 97 40% 2 29.03.2027 -
Shahriar Rezaeian Siah Jamegan Active 94 / 119 40% 1 25.03.2027 -
Federico Losas Chacarita Juniors Active 102 / 135 40% 1 15.03.2027 -
Heorhii Yermakov Metalist Active 130 / 114 40% 1 08.03.2027 -
Deniz Ertaş Konyaspor Active 132 / 113 40% 1 06.03.2027 -
Strahinja Manojlović Radnicki Nis Active 99 / 125 40% 1 03.03.2027 -
Mohammad Hosseini Malavan Active 127 / 120 40% 1 29.01.2027 -
Mevran Ablak Angusht Active 67 / 74 40% 1 27.01.2027 -
Sampson Dweh Mallorca Active 133 / 134 66% 1 01.01.2027 Approve
Enis Bardhi Konyaspor Active 132 / 112 58% 1 01.01.2027 -
Mads Hermansen West Ham United Active 137 / 149 40% 1 01.01.2027 -
Nathan Collins Brentford Active 137 / 158 40% 1 29.12.2026 -
Quinten Timber Crystal Palace Active 147 / 159 40% 2 27.12.2026 -
Dennis Cirkin Queens Park Rangers Active 135 / 132 40% 1 27.12.2026 -
Dara O'Shea Ipswich Town Active 138 / 124 40% 2 25.12.2026 -
Jacob Greaves Ipswich Town Active 143 / 128 40% 1 23.12.2026 -
Tomáš Souček West Ham United Active 136 / 131 40% 1 22.12.2026 -
Reinildo Sunderland Active 138 / 141 40% 3 21.12.2026 -
James Garner Everton Active 156 / 137 40% 1 21.12.2026 -
Lucas Torreira Galatasaray Active 156 / 146 40% 2 20.12.2026 -
Igor Burnley Active 134 / 135 40% 1 20.12.2026 -
Alex Scott Bournemouth Active 146 / 156 40% 1 18.12.2026 -
Gabriel Sara Galatasaray Active 144 / 152 40% 3 17.12.2026 -
Wilfried Singo Galatasaray Active 146 / 144 40% 2 17.12.2026 -
Milan Škriniar Fenerbahce Active 152 / 163 40% 3 16.12.2026 -
Aaron Hickey Brentford Active 135 / 137 40% 1 14.12.2026 -
Brooke Norton-Cuffy Hull City Active 137 / 139 40% 1 14.12.2026 -
Emmanuel Agbadou Besiktas Active 142 / 146 40% 1 12.12.2026 -
Harry Clarke Preston Active 121 / 136 40% 1 10.12.2026 -
Welington Southampton Active 138 / 124 40% 1 09.12.2026 -
Yehor Yarmoliuk Brentford Active 150 / 140 40% 1 03.12.2026 -
Max Johnston Derby County Active 132 / 133 40% 2 02.12.2026 -
Florentino Luís Ipswich Town Active 150 / 147 40% 2 30.11.2026 -
Toby Collyer West Bromwich Albion Active 134 / 142 40% 1 30.11.2026 -
Jordan Lotomba Bloemfontein Celtic Active 140 / 137 40% 1 29.11.2026 -
Pedro Porro Tottenham Active 154 / 141 40% 2 20.11.2026 -
Shea Charles Southampton Active 131 / 124 40% 1 20.11.2026 -
Leon Goretzka Aston Villa Active 160 / 144 40% 1 14.11.2026 -
Ousmane Diomande Nottingham Forest Active 159 / 147 40% 1 10.11.2026 -
Paik Seung-Ho Birmingham Active 122 / 128 40% 1 09.11.2026 -
Tariq Lamptey Queens Park Rangers Active 134 / 138 40% 1 09.11.2026 -
Hidemasa Morita Hull City Active 141 / 153 40% 1 08.11.2026 -
Jarrad Branthwaite Everton Active 161 / 158 40% 1 07.11.2026 -
Joe Gomez Liverpool Active 155 / 138 40% 1 07.11.2026 -
Maestro Alanyaspor Active 125 / 132 40% 1 02.11.2026 -
Nicolás Romero Minnesota United FC Active 115 / 142 40% 1 24.10.2026 -
Agustín Bouzat Houston Dynamo Active 128 / 112 40% 2 23.10.2026 -
Davinson Sánchez Galatasaray Active 159 / 140 40% 2 23.10.2026 -
Nathan Aké Fenerbahce Active 153 / 142 40% 4 22.10.2026 -
Facundo Miño Deportivo Riestra Active 105 / 104 40% 1 21.10.2026 -
Gustavo Mantuan Zenit Active 116 / 140 40% 1 21.10.2026 -
Morgan Billiat SuperSport United Active 109 / 126 40% 1 16.10.2026 -
Marcel Hartel St. Louis CITY SC Active 115 / 138 40% 1 14.10.2026 -
Ferland Mendy Real Madrid Active 155 / 151 40% 1 13.10.2026 -
Óscar Valentín FC Copenhagen Active 130 / 126 40% 1 09.10.2026 -
Japhet Sery Larsen Philadelphia Union Active 140 / 141 40% 1 08.10.2026 -
Marcelo Saracchi Houston Dynamo Active 123 / 123 40% 1 09.09.2026 -
Bünyamin Balcı Antalyaspor Active 123 / 109 55% 1 31.08.2026 -